createdAt,value
2022-08-17T00:02:26.341Z,20.19
2022-08-17T00:05:41.271Z,20.18
2022-08-17T00:09:01.292Z,20.23
2022-08-17T00:12:42.984Z,20.25
2022-08-17T00:15:38.656Z,20.23
2022-08-17T00:19:05.744Z,20.23
2022-08-17T00:22:30.964Z,20.19
2022-08-17T00:25:31.918Z,20.12
2022-08-17T00:28:48.928Z,20.11
2022-08-17T00:33:15.411Z,20.11
2022-08-17T00:35:30.653Z,20.09
2022-08-17T00:38:47.037Z,20.11
2022-08-17T00:42:03.846Z,20.13
2022-08-17T00:45:24.762Z,20.15
2022-08-17T00:48:41.982Z,20.15
2022-08-17T00:52:04.694Z,20.14
2022-08-17T00:55:23.065Z,20.14
2022-08-17T00:58:41.573Z,20.18
2022-08-17T01:01:58.566Z,20.22
2022-08-17T01:05:18.942Z,20.25
2022-08-17T01:08:39.241Z,20.25
2022-08-17T01:11:56.205Z,20.22
2022-08-17T01:15:14.642Z,20.16
2022-08-17T01:18:32.005Z,20.13
2022-08-17T01:21:52.735Z,20.08
2022-08-17T01:25:13.459Z,20.06
2022-08-17T01:28:40.711Z,20.03
2022-08-17T01:31:55.217Z,20.02
2022-08-17T01:35:13.591Z,20.07
2022-08-17T01:38:31.514Z,20.12
2022-08-17T01:41:48.950Z,20.14
2022-08-17T01:45:10.775Z,20.08
2022-08-17T01:48:28.213Z,19.96
2022-08-17T01:51:45.135Z,19.95
2022-08-17T01:55:02.446Z,19.98
2022-08-17T01:58:18.897Z,19.97
2022-08-17T02:01:38.820Z,19.91
2022-08-17T02:04:55.201Z,19.90
2022-08-17T02:11:19.127Z,19.88
2022-08-17T02:14:36.446Z,19.82
2022-08-17T02:17:54.876Z,19.76
2022-08-17T02:21:11.087Z,19.74
2022-08-17T02:24:59.636Z,19.72
2022-08-17T02:27:52.136Z,19.68
2022-08-17T02:31:14.215Z,19.55
2022-08-17T02:34:30.789Z,19.52
2022-08-17T02:37:51.771Z,19.52
2022-08-17T02:41:05.828Z,19.49
2022-08-17T02:44:39.103Z,19.44
2022-08-17T02:47:43.238Z,19.40
2022-08-17T02:50:57.389Z,19.41
2022-08-17T02:54:41.680Z,19.39
2022-08-17T02:57:32.031Z,19.41
2022-08-17T03:00:52.548Z,19.42
2022-08-17T03:04:08.981Z,19.42
2022-08-17T03:07:25.165Z,19.46
2022-08-17T03:10:41.666Z,19.50
2022-08-17T03:13:58.304Z,19.53
2022-08-17T03:17:17.356Z,19.54
2022-08-17T03:20:37.135Z,19.52
2022-08-17T03:23:54.519Z,19.53
2022-08-17T03:27:11.597Z,19.53
2022-08-17T03:30:28.430Z,19.53
2022-08-17T03:33:47.358Z,19.53
2022-08-17T03:37:02.834Z,19.53
2022-08-17T03:40:34.514Z,19.56
2022-08-17T03:43:41.558Z,19.59
2022-08-17T03:47:11.727Z,19.59
2022-08-17T03:50:42.898Z,19.62
2022-08-17T03:54:17.131Z,19.64
2022-08-17T03:57:33.968Z,19.65
2022-08-17T04:00:50.145Z,19.67
2022-08-17T04:04:06.552Z,19.71
2022-08-17T04:07:22.733Z,19.77
2022-08-17T04:10:41.353Z,19.81
2022-08-17T04:13:57.666Z,19.84
2022-08-17T04:17:14.084Z,19.85
2022-08-17T04:20:33.005Z,19.86
2022-08-17T04:23:49.196Z,19.91
2022-08-17T04:27:06.965Z,19.95
2022-08-17T04:30:23.894Z,19.98
2022-08-17T04:33:40.947Z,20.01
2022-08-17T04:36:58.091Z,20.04
2022-08-17T04:40:31.063Z,20.09
2022-08-17T04:43:50.277Z,20.14
2022-08-17T04:47:08.073Z,20.18
2022-08-17T04:50:26.115Z,20.23
2022-08-17T04:53:44.962Z,20.26
2022-08-17T04:57:01.462Z,20.29
2022-08-17T05:00:23.164Z,20.31
2022-08-17T05:03:39.863Z,20.38
2022-08-17T05:06:59.979Z,20.45
2022-08-17T05:10:19.550Z,20.49
2022-08-17T05:13:37.731Z,20.53
2022-08-17T05:16:53.925Z,20.61
2022-08-17T05:20:16.732Z,20.66
2022-08-17T05:23:42.564Z,20.73
2022-08-17T05:26:53.112Z,20.76
2022-08-17T05:30:12.293Z,20.80
2022-08-17T05:33:31.259Z,20.89
2022-08-17T05:36:45.773Z,20.95
2022-08-17T05:40:03.509Z,21.05
2022-08-17T05:43:24.843Z,21.09
2022-08-17T05:46:45.877Z,21.18
2022-08-17T05:50:03.560Z,21.28
2022-08-17T05:53:28.190Z,21.34
2022-08-17T05:56:58.677Z,21.41
2022-08-17T06:00:30.390Z,21.55
2022-08-17T06:03:52.020Z,21.67
2022-08-17T06:07:14.442Z,21.75
2022-08-17T06:10:36.886Z,21.86
2022-08-17T06:14:22.110Z,22.02
2022-08-17T06:17:39.949Z,22.20
2022-08-17T06:21:00.601Z,22.36
2022-08-17T06:24:34.575Z,22.51
2022-08-17T06:27:54.796Z,22.67
2022-08-17T06:31:20.903Z,22.82
2022-08-17T06:34:38.312Z,22.96
2022-08-17T06:38:13.079Z,23.11
2022-08-17T06:41:37.892Z,23.28
2022-08-17T06:45:02.495Z,23.44
2022-08-17T06:48:25.511Z,23.59
2022-08-17T06:51:47.029Z,23.70
2022-08-17T06:55:18.150Z,23.87
2022-08-17T06:58:34.164Z,24.05
2022-08-17T07:01:53.161Z,24.30
2022-08-17T07:05:11.312Z,24.45
2022-08-17T07:08:35.368Z,24.65
2022-08-17T07:11:58.156Z,24.85
2022-08-17T07:15:21.981Z,24.97
2022-08-17T07:18:41.413Z,25.13
2022-08-17T07:22:03.319Z,25.29
2022-08-17T07:25:23.243Z,25.52
2022-08-17T07:28:41.325Z,25.67
2022-08-17T07:31:59.178Z,25.90
2022-08-17T07:35:31.113Z,26.15
2022-08-17T07:38:47.698Z,26.47
2022-08-17T07:42:12.610Z,26.73
2022-08-17T07:45:43.442Z,27.03
2022-08-17T07:49:04.426Z,27.32
2022-08-17T07:52:50.357Z,27.69
2022-08-17T07:55:53.023Z,28.08
2022-08-17T07:59:23.693Z,28.38
2022-08-17T08:02:44.386Z,28.76
2022-08-17T08:06:07.023Z,29.03
2022-08-17T08:09:40.236Z,29.34
2022-08-17T08:13:01.189Z,29.67
2022-08-17T08:16:36.266Z,30.07
2022-08-17T08:19:52.634Z,30.29
2022-08-17T08:23:16.515Z,30.53
2022-08-17T08:26:37.503Z,30.69
2022-08-17T08:29:59.810Z,31.09
2022-08-17T08:33:45.802Z,30.81
2022-08-17T08:37:16.479Z,31.34
2022-08-17T08:40:51.982Z,31.80
2022-08-17T08:44:20.125Z,32.18
2022-08-17T08:47:49.295Z,32.38
2022-08-17T08:51:10.568Z,32.50
2022-08-17T08:54:37.644Z,32.33
2022-08-17T08:58:00.325Z,32.35
2022-08-17T09:01:22.076Z,32.14
2022-08-17T09:05:13.405Z,32.05
2022-08-17T09:08:18.265Z,32.12
2022-08-17T09:12:02.623Z,32.79
2022-08-17T09:15:12.328Z,32.91
2022-08-17T09:19:00.007Z,33.04
2022-08-17T09:21:55.222Z,33.06
2022-08-17T09:25:18.697Z,33.10
2022-08-17T09:28:40.467Z,33.05
2022-08-17T09:32:02.566Z,33.10
2022-08-17T09:35:36.588Z,33.24
2022-08-17T09:38:50.992Z,33.18
2022-08-17T09:42:12.688Z,33.04
2022-08-17T09:45:43.735Z,32.97
2022-08-17T09:49:06.849Z,32.48
2022-08-17T09:52:28.191Z,32.10
2022-08-17T09:55:54.262Z,32.06
2022-08-17T09:59:38.294Z,31.99
2022-08-17T10:03:35.237Z,31.77
2022-08-17T10:07:00.987Z,31.31
2022-08-17T10:10:25.853Z,30.99
2022-08-17T10:13:52.899Z,31.12
2022-08-17T10:17:15.409Z,30.68
2022-08-17T10:20:37.656Z,30.32
2022-08-17T10:24:14.471Z,29.98
2022-08-17T10:27:38.083Z,29.74
2022-08-17T10:31:23.323Z,29.54
2022-08-17T10:34:41.669Z,29.32
2022-08-17T10:38:28.061Z,29.07
2022-08-17T10:41:50.376Z,28.96
2022-08-17T10:45:11.574Z,28.93
2022-08-17T10:48:44.136Z,28.82
2022-08-17T10:52:03.627Z,28.79
2022-08-17T10:55:27.653Z,28.70
2022-08-17T10:58:54.729Z,28.62
2022-08-17T11:02:35.536Z,28.84
2022-08-17T11:06:16.227Z,28.68
2022-08-17T11:09:45.627Z,28.75
2022-08-17T11:13:07.981Z,28.97
2022-08-17T11:16:52.814Z,29.07
2022-08-17T11:20:54.525Z,29.01
2022-08-17T11:24:31.451Z,28.86
2022-08-17T11:27:50.472Z,28.74
2022-08-17T11:31:12.059Z,28.66
2022-08-17T11:34:34.226Z,28.56
2022-08-17T11:38:01.563Z,28.68
2022-08-17T11:41:31.687Z,28.83
2022-08-17T11:44:58.458Z,28.97
2022-08-17T11:48:34.965Z,29.04
2022-08-17T11:52:45.974Z,29.08
2022-08-17T11:56:19.290Z,29.12
2022-08-17T12:00:06.167Z,29.09
2022-08-17T12:03:58.618Z,29.04
2022-08-17T12:07:21.361Z,28.99
2022-08-17T12:10:41.907Z,28.96
2022-08-17T12:14:02.461Z,28.85
2022-08-17T12:17:41.472Z,28.76
2022-08-17T12:20:45.645Z,28.64
2022-08-17T12:24:08.902Z,28.47
2022-08-17T12:28:04.263Z,28.37
2022-08-17T12:31:04.244Z,28.36
2022-08-17T12:34:28.582Z,28.37
2022-08-17T12:37:51.041Z,28.38
2022-08-17T12:41:12.526Z,28.35
2022-08-17T12:44:33.836Z,28.38
2022-08-17T12:47:50.227Z,28.38
2022-08-17T12:51:12.304Z,28.38
2022-08-17T12:54:44.059Z,28.36
2022-08-17T12:58:02.874Z,28.44
2022-08-17T13:01:24.161Z,28.46
2022-08-17T13:04:41.590Z,28.47
2022-08-17T13:08:02.130Z,28.47
2022-08-17T13:11:25.794Z,28.48
2022-08-17T13:14:42.228Z,28.51
2022-08-17T13:18:16.335Z,28.50
2022-08-17T13:21:37.311Z,28.45
2022-08-17T13:25:04.968Z,28.43
2022-08-17T13:28:36.390Z,28.40
2022-08-17T13:31:56.568Z,28.43
2022-08-17T13:35:39.863Z,28.46
2022-08-17T13:38:58.311Z,28.47
2022-08-17T13:42:31.138Z,28.51
2022-08-17T13:45:56.123Z,28.54
2022-08-17T13:49:16.766Z,28.52
2022-08-17T13:52:52.001Z,28.56
2022-08-17T13:56:37.760Z,28.55
2022-08-17T13:59:54.688Z,28.53
2022-08-17T14:03:03.212Z,28.49
2022-08-17T14:06:52.504Z,28.45
2022-08-17T14:09:41.783Z,28.44
2022-08-17T14:12:58.071Z,28.39
2022-08-17T14:16:16.738Z,28.39
2022-08-17T14:19:34.302Z,28.39
2022-08-17T14:22:58.843Z,28.39
2022-08-17T14:26:16.611Z,28.40
2022-08-17T14:29:36.801Z,28.41
2022-08-17T14:32:54.748Z,28.43
2022-08-17T14:36:11.678Z,28.46
2022-08-17T14:39:31.718Z,28.46
2022-08-17T14:42:51.723Z,28.42
2022-08-17T14:46:07.942Z,28.39
2022-08-17T14:49:24.706Z,28.38
2022-08-17T14:52:41.516Z,28.38
2022-08-17T14:55:59.516Z,28.34
2022-08-17T14:59:17.792Z,28.29
2022-08-17T15:02:38.287Z,28.24
2022-08-17T15:05:55.008Z,28.18
2022-08-17T15:09:17.627Z,28.12
2022-08-17T15:12:36.589Z,28.11
2022-08-17T15:15:53.054Z,28.06
2022-08-17T15:19:09.357Z,28.02
2022-08-17T15:22:33.363Z,28.01
2022-08-17T15:25:51.236Z,28.05
2022-08-17T15:29:07.418Z,28.04
2022-08-17T15:32:36.229Z,28.01
2022-08-17T15:35:54.433Z,27.96
2022-08-17T15:39:11.113Z,27.92
2022-08-17T15:42:28.410Z,27.90
2022-08-17T15:45:45.021Z,27.86
2022-08-17T15:49:03.264Z,27.83
2022-08-17T15:52:28.206Z,27.84
2022-08-17T15:55:45.389Z,27.89
2022-08-17T15:59:02.034Z,27.96
2022-08-17T16:03:44.223Z,27.95
2022-08-17T16:05:46.238Z,27.76
2022-08-17T16:09:03.391Z,27.55
2022-08-17T16:12:23.279Z,27.35
2022-08-17T16:15:39.704Z,27.18
2022-08-17T16:18:58.656Z,27.05
2022-08-17T16:22:16.345Z,26.93
2022-08-17T16:25:52.366Z,26.87
2022-08-17T16:28:54.974Z,26.80
2022-08-17T16:32:18.474Z,26.72
2022-08-17T16:35:35.428Z,26.69
2022-08-17T16:38:52.078Z,26.68
2022-08-17T16:42:09.995Z,26.69
2022-08-17T16:45:29.680Z,26.68
2022-08-17T16:48:47.349Z,26.59
2022-08-17T16:52:10.999Z,26.56
2022-08-17T16:55:30.070Z,26.57
2022-08-17T16:58:46.747Z,26.58
2022-08-17T17:02:05.229Z,26.57
2022-08-17T17:05:28.742Z,26.56
2022-08-17T17:08:49.193Z,26.54
2022-08-17T17:12:09.450Z,26.54
2022-08-17T17:15:26.323Z,26.55
2022-08-17T17:18:48.510Z,26.53
2022-08-17T17:22:10.553Z,26.45
2022-08-17T17:25:34.404Z,26.47
2022-08-17T17:28:57.353Z,26.45
2022-08-17T17:32:21.745Z,26.39
2022-08-17T17:35:44.316Z,26.36
2022-08-17T17:39:06.336Z,26.35
2022-08-17T17:42:29.127Z,26.32
2022-08-17T17:45:53.388Z,26.29
2022-08-17T17:49:11.468Z,26.26
2022-08-17T17:52:36.288Z,26.23
2022-08-17T17:56:02.099Z,26.19
2022-08-17T17:59:23.944Z,26.12
2022-08-17T18:02:58.082Z,25.93
2022-08-17T18:06:27.415Z,25.81
2022-08-17T18:10:19.787Z,25.61
2022-08-17T18:13:32.536Z,25.44
2022-08-17T18:16:49.339Z,25.28
2022-08-17T18:20:07.537Z,25.10
2022-08-17T18:23:28.055Z,24.92
2022-08-17T18:26:57.811Z,24.80
2022-08-17T18:30:34.323Z,24.66
2022-08-17T18:33:54.208Z,24.57
2022-08-17T18:37:16.030Z,24.45
2022-08-17T18:40:41.732Z,24.31
2022-08-17T18:44:12.416Z,24.21
2022-08-17T18:47:31.413Z,24.10
2022-08-17T18:50:49.128Z,23.99
2022-08-17T18:54:23.165Z,23.89
2022-08-17T18:57:43.895Z,23.77
2022-08-17T19:01:01.018Z,23.71
2022-08-17T19:04:34.792Z,23.69
2022-08-17T19:07:53.645Z,23.62
2022-08-17T19:11:13.710Z,23.53
2022-08-17T19:14:31.871Z,23.47
2022-08-17T19:17:56.287Z,23.37
2022-08-17T19:21:18.303Z,23.29
2022-08-17T19:24:37.621Z,23.22
2022-08-17T19:28:03.193Z,23.15
2022-08-17T19:31:27.011Z,23.12
2022-08-17T19:34:46.195Z,23.08
2022-08-17T19:38:12.922Z,23.03
2022-08-17T19:41:38.508Z,22.96
2022-08-17T19:45:02.301Z,22.92
2022-08-17T19:48:28.182Z,22.92
2022-08-17T19:51:51.842Z,22.90
2022-08-17T19:55:19.853Z,22.81
2022-08-17T19:58:44.859Z,22.76
2022-08-17T20:02:05.665Z,22.75
2022-08-17T20:05:27.412Z,22.69
2022-08-17T20:08:48.102Z,22.64
2022-08-17T20:12:09.604Z,22.53
2022-08-17T20:15:31.346Z,22.50
2022-08-17T20:18:54.846Z,22.46
2022-08-17T20:22:16.213Z,22.42
2022-08-17T20:25:39.287Z,22.37
2022-08-17T20:29:37.736Z,22.30
2022-08-17T20:33:04.482Z,22.28
2022-08-17T20:36:27.967Z,22.25
2022-08-17T20:39:49.924Z,22.23
2022-08-17T20:43:21.534Z,22.19
2022-08-17T20:47:04.119Z,22.17
2022-08-17T20:50:25.184Z,22.09
2022-08-17T20:54:41.525Z,22.07
2022-08-17T20:57:58.132Z,22.04
2022-08-17T21:01:26.926Z,22.02
2022-08-17T21:05:10.670Z,21.97
2022-08-17T21:08:33.719Z,21.99
2022-08-17T21:12:05.574Z,22.03
2022-08-17T21:15:35.688Z,22.06
2022-08-17T21:18:57.578Z,22.13
2022-08-17T21:22:23.287Z,22.08
2022-08-17T21:26:07.201Z,22.06
2022-08-17T21:29:31.286Z,22.05
2022-08-17T21:32:49.572Z,21.98
2022-08-17T21:36:34.429Z,21.93
2022-08-17T21:39:53.630Z,21.85
2022-08-17T21:43:24.251Z,21.84
2022-08-17T21:46:46.529Z,21.79
2022-08-17T21:50:12.438Z,21.75
2022-08-17T21:53:39.727Z,21.71
2022-08-17T21:57:00.481Z,21.78
2022-08-17T22:00:21.182Z,21.68
2022-08-17T22:03:39.374Z,21.64
2022-08-17T22:06:58.974Z,21.66
2022-08-17T22:10:32.230Z,21.64
2022-08-17T22:13:49.754Z,21.59
2022-08-17T22:17:25.679Z,21.59
2022-08-17T22:20:42.443Z,21.48
2022-08-17T22:24:15.411Z,21.39
2022-08-17T22:27:50.922Z,21.34
2022-08-17T22:31:14.504Z,21.39
2022-08-17T22:34:30.910Z,21.24
2022-08-17T22:37:47.255Z,21.15
2022-08-17T22:41:37.417Z,21.13
2022-08-17T22:44:59.392Z,21.03
2022-08-17T22:48:16.072Z,21.08
2022-08-17T22:51:35.779Z,21.08
2022-08-17T22:55:09.437Z,21.06
2022-08-17T22:58:43.462Z,20.97
2022-08-17T23:02:27.912Z,20.96
2022-08-17T23:05:48.440Z,20.94
2022-08-17T23:09:05.071Z,20.87
2022-08-17T23:12:28.386Z,20.73
2022-08-17T23:15:48.803Z,20.70
2022-08-17T23:19:06.532Z,20.70
2022-08-17T23:22:24.264Z,20.72
2022-08-17T23:25:45.343Z,20.73
2022-08-17T23:29:03.400Z,20.67
2022-08-17T23:32:22.979Z,20.65
2022-08-17T23:35:41.140Z,20.63
2022-08-17T23:38:58.608Z,20.59
2022-08-17T23:42:23.542Z,20.62
2022-08-17T23:45:39.813Z,20.53
2022-08-17T23:48:58.713Z,20.49
2022-08-17T23:52:19.476Z,20.48
2022-08-17T23:55:36.184Z,20.46
2022-08-17T23:58:52.970Z,20.47
